createdAt,value
2022-11-13T00:04:33.430Z,6.50
2022-11-13T00:09:36.308Z,6.40
2022-11-13T00:14:39.177Z,6.30
2022-11-13T00:19:42.562Z,6.30
2022-11-13T00:24:46.471Z,6.30
2022-11-13T00:29:49.398Z,6.20
2022-11-13T00:34:53.046Z,6.10
2022-11-13T00:39:59.620Z,6.00
2022-11-13T00:45:02.668Z,6.00
2022-11-13T00:50:06.038Z,6.00
2022-11-13T00:55:09.184Z,5.90
2022-11-13T01:00:12.815Z,5.80
2022-11-13T01:05:15.698Z,5.80
2022-11-13T01:10:18.773Z,5.70
2022-11-13T01:15:21.669Z,5.70
2022-11-13T01:20:26.014Z,5.70
2022-11-13T01:25:29.508Z,5.60
2022-11-13T01:30:32.788Z,5.60
2022-11-13T01:35:35.707Z,5.60
2022-11-13T01:40:48.391Z,5.50
2022-11-13T01:46:00.459Z,5.50
2022-11-13T01:51:09.707Z,5.50
2022-11-13T01:56:13.302Z,5.40
2022-11-13T02:01:16.045Z,5.30
2022-11-13T02:06:21.914Z,5.30
2022-11-13T02:11:25.663Z,5.30
2022-11-13T02:16:32.264Z,5.30
2022-11-13T02:21:53.537Z,5.20
2022-11-13T02:27:02.994Z,5.20
2022-11-13T02:32:06.010Z,5.20
2022-11-13T02:37:09.692Z,5.10
2022-11-13T02:42:12.515Z,5.00
2022-11-13T02:47:15.442Z,5.00
2022-11-13T02:52:18.152Z,4.90
2022-11-13T02:57:21.104Z,4.80
2022-11-13T03:02:24.499Z,4.70
2022-11-13T03:07:27.719Z,4.70
2022-11-13T03:12:30.836Z,4.70
2022-11-13T03:17:35.200Z,4.70
2022-11-13T03:22:38.087Z,4.90
2022-11-13T03:27:40.905Z,5.10
2022-11-13T03:32:43.873Z,5.30
2022-11-13T03:37:46.912Z,5.50
2022-11-13T03:42:49.768Z,5.70
2022-11-13T03:47:52.654Z,5.80
2022-11-13T03:52:55.570Z,6.00
2022-11-13T03:57:58.465Z,6.00
2022-11-13T04:03:01.582Z,6.10
2022-11-13T04:08:04.829Z,6.10
2022-11-13T04:13:07.957Z,6.20
2022-11-13T04:18:10.802Z,6.20
2022-11-13T04:23:15.997Z,6.20
2022-11-13T04:28:18.990Z,6.20
2022-11-13T04:33:22.185Z,6.10
2022-11-13T04:38:25.199Z,6.10
2022-11-13T04:43:28.303Z,6.00
2022-11-13T04:48:31.481Z,5.90
2022-11-13T04:53:34.798Z,5.90
2022-11-13T04:58:37.522Z,6.00
2022-11-13T05:03:40.411Z,6.00
2022-11-13T05:08:43.256Z,6.00
2022-11-13T05:13:46.828Z,5.90
2022-11-13T05:18:50.266Z,5.90
2022-11-13T05:23:53.133Z,5.90
2022-11-13T05:29:00.556Z,5.70
2022-11-13T05:34:06.319Z,5.60
2022-11-13T05:39:09.404Z,5.60
2022-11-13T05:44:12.332Z,5.60
2022-11-13T05:49:15.661Z,5.60
2022-11-13T05:54:18.536Z,5.70
2022-11-13T05:59:21.452Z,5.70
2022-11-13T06:04:24.326Z,5.80
2022-11-13T06:09:27.436Z,5.90
2022-11-13T06:14:30.245Z,6.00
2022-11-13T06:19:32.959Z,6.10
2022-11-13T06:24:36.429Z,6.10
2022-11-13T06:29:39.564Z,6.20
2022-11-13T06:34:42.766Z,6.20
2022-11-13T06:39:45.511Z,6.30
2022-11-13T06:44:48.421Z,6.30
2022-11-13T06:49:51.302Z,6.30
2022-11-13T06:54:54.230Z,6.40
2022-11-13T06:59:57.473Z,6.40
2022-11-13T07:05:00.577Z,6.50
2022-11-13T07:10:03.529Z,6.60
2022-11-13T07:15:06.999Z,6.70
2022-11-13T07:20:10.758Z,6.70
2022-11-13T07:25:14.109Z,6.80
2022-11-13T07:30:18.031Z,6.90
2022-11-13T07:35:21.397Z,7.00
2022-11-13T07:40:24.728Z,7.00
2022-11-13T07:45:28.786Z,7.20
2022-11-13T07:50:36.167Z,7.30
2022-11-13T07:55:39.104Z,7.30
2022-11-13T08:00:42.376Z,7.30
2022-11-13T08:05:45.668Z,7.40
2022-11-13T08:10:48.599Z,7.50
2022-11-13T08:15:51.502Z,7.50
2022-11-13T08:20:54.909Z,7.60
2022-11-13T08:25:58.508Z,7.80
2022-11-13T08:31:03.101Z,8.00
2022-11-13T08:36:06.793Z,8.10
2022-11-13T08:41:10.074Z,8.20
2022-11-13T08:46:12.914Z,8.20
2022-11-13T08:51:16.881Z,8.30
2022-11-13T08:56:20.058Z,8.40
2022-11-13T09:01:22.970Z,8.60
2022-11-13T09:06:26.120Z,8.70
2022-11-13T09:11:31.548Z,8.80
2022-11-13T09:16:34.557Z,8.90
2022-11-13T09:21:37.290Z,9.00
2022-11-13T09:26:40.211Z,9.10
2022-11-13T09:31:43.047Z,9.10
2022-11-13T09:36:46.654Z,9.20
2022-11-13T09:42:22.618Z,9.30
2022-11-13T09:47:37.516Z,9.40
2022-11-13T09:52:44.363Z,9.50
2022-11-13T09:58:06.956Z,9.60
2022-11-13T10:04:00.624Z,9.70
2022-11-13T10:09:28.507Z,9.90
2022-11-13T10:14:46.023Z,10.10
2022-11-13T10:20:16.195Z,10.30
2022-11-13T10:25:24.053Z,10.50
2022-11-13T10:30:29.690Z,10.70
2022-11-13T10:35:38.495Z,10.70
2022-11-13T10:40:41.561Z,10.70
2022-11-13T10:45:59.466Z,10.70
2022-11-13T10:51:29.240Z,10.70
2022-11-13T10:56:37.588Z,10.70
2022-11-13T11:01:42.671Z,10.70
2022-11-13T11:07:18.464Z,10.70
2022-11-13T11:12:30.179Z,10.80
2022-11-13T11:18:01.582Z,10.90
2022-11-13T11:23:31.152Z,11.00
2022-11-13T11:29:00.512Z,11.10
2022-11-13T11:34:16.217Z,11.10
2022-11-13T11:39:48.460Z,11.10
2022-11-13T11:45:04.917Z,11.20
2022-11-13T11:50:18.796Z,11.30
2022-11-13T11:56:04.805Z,11.40
2022-11-13T12:01:37.408Z,11.50
2022-11-13T12:07:00.342Z,11.50
2022-11-13T12:12:18.254Z,11.60
2022-11-13T12:17:56.034Z,11.70
2022-11-13T12:23:28.861Z,11.70
2022-11-13T12:29:06.450Z,11.60
2022-11-13T12:34:34.459Z,11.60
2022-11-13T12:40:00.399Z,11.60
2022-11-13T12:45:28.199Z,11.70
2022-11-13T12:50:33.019Z,11.70
2022-11-13T12:55:40.816Z,11.60
2022-11-13T13:00:58.948Z,11.60
2022-11-13T13:06:08.326Z,11.70
2022-11-13T13:11:49.056Z,11.80
2022-11-13T13:16:52.116Z,12.00
2022-11-13T13:21:56.129Z,12.20
2022-11-13T13:27:01.482Z,12.10
2022-11-13T13:32:27.254Z,12.00
2022-11-13T13:38:08.268Z,11.90
2022-11-13T13:43:41.346Z,11.70
2022-11-13T13:48:47.897Z,11.60
2022-11-13T13:53:51.557Z,11.50
2022-11-13T13:58:55.171Z,11.30
2022-11-13T14:04:18.849Z,11.30
2022-11-13T14:09:26.549Z,11.20
2022-11-13T14:14:31.100Z,11.20
2022-11-13T14:19:34.149Z,11.10
2022-11-13T14:24:53.667Z,11.00
2022-11-13T14:30:01.569Z,10.90
2022-11-13T14:35:08.066Z,10.80
2022-11-13T14:40:33.269Z,10.60
2022-11-13T14:45:36.382Z,10.40
2022-11-13T14:50:51.212Z,10.20
2022-11-13T14:56:00.541Z,10.00
2022-11-13T15:01:25.435Z,9.80
2022-11-13T15:06:39.865Z,9.60
2022-11-13T15:11:43.416Z,9.40
2022-11-13T15:16:48.755Z,9.20
2022-11-13T15:22:25.293Z,9.10
2022-11-13T15:27:19.263Z,8.90
2022-11-13T15:32:22.202Z,8.80
2022-11-13T15:37:25.748Z,8.60
2022-11-13T15:42:34.714Z,8.50
2022-11-13T15:47:37.955Z,8.40
2022-11-13T15:52:45.087Z,8.20
2022-11-13T15:57:48.785Z,8.00
2022-11-13T16:02:57.313Z,7.90
2022-11-13T16:08:00.230Z,7.70
2022-11-13T16:13:03.612Z,7.60
2022-11-13T16:18:15.824Z,7.50
2022-11-13T16:23:19.032Z,7.30
2022-11-13T16:28:22.010Z,7.20
2022-11-13T16:33:24.810Z,7.10
2022-11-13T16:38:28.476Z,7.00
2022-11-13T16:43:31.353Z,6.80
2022-11-13T16:48:34.447Z,6.70
2022-11-13T16:53:37.285Z,6.60
2022-11-13T16:58:40.268Z,6.50
2022-11-13T17:03:43.849Z,6.50
2022-11-13T17:08:51.067Z,6.40
2022-11-13T17:13:56.993Z,6.40
2022-11-13T17:19:00.335Z,6.30
2022-11-13T17:24:03.906Z,6.30
2022-11-13T17:29:07.379Z,6.30
2022-11-13T17:34:10.308Z,6.30
2022-11-13T17:39:13.236Z,6.30
2022-11-13T17:44:17.525Z,6.20
2022-11-13T17:49:21.076Z,6.20
2022-11-13T17:54:25.380Z,6.10
2022-11-13T17:59:28.562Z,6.00
2022-11-13T18:04:31.222Z,6.00
2022-11-13T18:09:35.246Z,5.90
2022-11-13T18:14:38.114Z,5.80
2022-11-13T18:19:40.959Z,5.80
2022-11-13T18:24:44.091Z,5.70
2022-11-13T18:29:47.065Z,5.60
2022-11-13T18:34:49.974Z,5.50
2022-11-13T18:39:53.377Z,5.50
2022-11-13T18:44:56.273Z,5.40
2022-11-13T18:49:59.240Z,5.40
2022-11-13T18:55:02.331Z,5.40
2022-11-13T19:00:05.857Z,5.40
2022-11-13T19:05:09.676Z,5.40
2022-11-13T19:10:12.898Z,5.40
2022-11-13T19:15:15.894Z,5.50
2022-11-13T19:20:18.947Z,5.50
2022-11-13T19:25:22.720Z,5.60
2022-11-13T19:30:25.737Z,5.80
2022-11-13T19:35:28.711Z,5.80
2022-11-13T19:40:31.824Z,5.90
2022-11-13T19:45:36.166Z,6.00
2022-11-13T19:50:39.483Z,6.10
2022-11-13T19:55:42.820Z,6.10
2022-11-13T20:00:45.712Z,6.20
2022-11-13T20:05:54.708Z,6.20
2022-11-13T20:11:10.456Z,6.30
2022-11-13T20:16:16.008Z,6.30
2022-11-13T20:21:30.200Z,6.30
2022-11-13T20:26:33.250Z,6.40
2022-11-13T20:31:36.329Z,6.40
2022-11-13T20:36:39.268Z,6.40
2022-11-13T20:41:42.761Z,6.50
2022-11-13T20:46:45.727Z,6.50
2022-11-13T20:51:50.634Z,6.50
2022-11-13T20:56:56.470Z,6.50
2022-11-13T21:01:59.613Z,6.50
2022-11-13T21:07:02.570Z,6.50
2022-11-13T21:12:05.870Z,6.50
2022-11-13T21:17:08.736Z,6.50
2022-11-13T21:22:11.614Z,6.50
2022-11-13T21:27:14.535Z,6.50
2022-11-13T21:32:17.451Z,6.50
2022-11-13T21:37:20.339Z,6.50
2022-11-13T21:42:23.191Z,6.40
2022-11-13T21:47:26.203Z,6.40
2022-11-13T21:52:29.525Z,6.30
2022-11-13T21:57:32.409Z,6.30
2022-11-13T22:02:35.475Z,6.30
2022-11-13T22:07:38.345Z,6.20
2022-11-13T22:12:41.281Z,6.10
2022-11-13T22:17:44.363Z,6.00
2022-11-13T22:22:47.255Z,6.00
2022-11-13T22:27:49.885Z,6.00
2022-11-13T22:32:52.759Z,6.00
2022-11-13T22:37:55.611Z,6.00
2022-11-13T22:42:59.603Z,6.00
2022-11-13T22:48:02.492Z,6.00
2022-11-13T22:53:05.347Z,6.00
2022-11-13T22:58:08.150Z,6.00
2022-11-13T23:03:11.072Z,5.90
2022-11-13T23:08:13.922Z,5.80
2022-11-13T23:13:16.957Z,5.70
2022-11-13T23:18:19.896Z,5.60
2022-11-13T23:23:22.772Z,5.50
2022-11-13T23:28:26.183Z,5.40
2022-11-13T23:33:29.259Z,5.30
2022-11-13T23:38:32.428Z,5.10
2022-11-13T23:48:58.483Z,4.80
2022-11-13T23:54:01.513Z,4.70
2022-11-13T23:59:04.443Z,4.50
